createdAt,value
2018-12-22T00:00:41.025Z,10.1
2018-12-22T00:01:48.283Z,10.1
2018-12-22T00:02:55.478Z,10.1
2018-12-22T00:04:02.680Z,10
2018-12-22T00:05:09.885Z,10
2018-12-22T00:06:17.090Z,10
2018-12-22T00:07:24.286Z,10
2018-12-22T00:08:31.488Z,10
2018-12-22T00:09:38.781Z,9.9
2018-12-22T00:10:45.981Z,9.8
2018-12-22T00:11:53.183Z,9.8
2018-12-22T00:13:00.386Z,9.8
2018-12-22T00:14:07.591Z,9.8
2018-12-22T00:15:14.591Z,9.8
2018-12-22T00:16:21.495Z,9.8
2018-12-22T00:17:28.696Z,9.8
2018-12-22T00:18:35.893Z,9.8
2018-12-22T00:19:43.093Z,9.8
2018-12-22T00:20:50.295Z,9.8
2018-12-22T00:21:57.226Z,9.8
2018-12-22T00:23:04.423Z,9.9
2018-12-22T00:24:11.621Z,9.9
2018-12-22T00:25:18.283Z,9.9
2018-12-22T00:26:25.495Z,9.8
2018-12-22T00:27:32.693Z,9.8
2018-12-22T00:28:39.905Z,9.8
2018-12-22T00:29:47.106Z,9.8
2018-12-22T00:30:54.303Z,9.8
2018-12-22T00:32:01.510Z,9.8
2018-12-22T00:33:08.709Z,9.8
2018-12-22T00:34:15.915Z,9.9
2018-12-22T00:35:22.839Z,9.9
2018-12-22T00:36:29.765Z,9.9
2018-12-22T00:37:36.965Z,10
2018-12-22T00:38:43.891Z,9.9
2018-12-22T00:39:51.100Z,9.9
2018-12-22T00:40:58.037Z,9.9
2018-12-22T00:42:05.238Z,9.9
2018-12-22T00:43:12.434Z,9.9
2018-12-22T00:44:19.634Z,9.9
2018-12-22T00:45:26.562Z,9.8
2018-12-22T00:46:33.488Z,9.8
2018-12-22T00:47:40.695Z,9.8
2018-12-22T00:48:47.915Z,9.8
2018-12-22T00:49:54.837Z,9.9
2018-12-22T00:51:02.034Z,9.9
2018-12-22T00:52:09.237Z,10
2018-12-22T00:53:16.437Z,10
2018-12-22T00:54:23.638Z,10
2018-12-22T00:55:30.572Z,10.1
2018-12-22T00:56:37.775Z,10
2018-12-22T00:57:44.979Z,10
2018-12-22T00:58:52.179Z,10
2018-12-22T00:59:59.406Z,10
2018-12-22T01:01:06.612Z,10
2018-12-22T01:02:13.811Z,10.1
2018-12-22T01:03:20.744Z,10
2018-12-22T01:04:27.674Z,10.1
2018-12-22T01:05:34.877Z,10.1
2018-12-22T01:06:42.077Z,10.1
2018-12-22T01:07:49.277Z,10.1
2018-12-22T01:08:56.480Z,10.1
2018-12-22T01:10:03.693Z,10.1
2018-12-22T01:11:10.980Z,10.1
2018-12-22T01:12:17.906Z,10.1
2018-12-22T01:13:25.105Z,10.1
2018-12-22T01:14:32.303Z,10
2018-12-22T01:15:39.500Z,10.1
2018-12-22T01:16:46.700Z,10.1
2018-12-22T01:17:53.898Z,10.1
2018-12-22T01:19:00.842Z,10.1
2018-12-22T01:20:08.043Z,10.1
2018-12-22T01:21:15.241Z,10.2
2018-12-22T01:22:22.441Z,10.2
2018-12-22T01:23:29.185Z,10.2
2018-12-22T01:24:36.384Z,10.1
2018-12-22T01:25:43.585Z,10.1
2018-12-22T01:26:50.782Z,10.1
2018-12-22T01:27:57.981Z,10.2
2018-12-22T01:29:05.187Z,10.2
2018-12-22T01:30:12.408Z,10.2
2018-12-22T01:31:19.608Z,10.2
2018-12-22T01:32:26.809Z,10.1
2018-12-22T01:33:33.734Z,10.1
2018-12-22T01:34:40.673Z,10.1
2018-12-22T01:35:47.602Z,10.3
2018-12-22T01:36:54.807Z,10.3
2018-12-22T01:38:01.733Z,10.3
2018-12-22T01:39:08.939Z,10.4
2018-12-22T01:40:16.140Z,10.4
2018-12-22T01:41:23.367Z,10.4
2018-12-22T01:42:30.573Z,10.4
2018-12-22T01:43:37.771Z,10.4
2018-12-22T01:44:44.976Z,10.3
2018-12-22T01:45:52.185Z,10.3
2018-12-22T01:46:59.386Z,10.3
2018-12-22T01:48:06.583Z,10.3
2018-12-22T01:49:13.567Z,10.3
2018-12-22T01:50:20.780Z,10.3
2018-12-22T01:51:27.705Z,10.4
2018-12-22T01:52:34.915Z,10.4
2018-12-22T01:53:41.840Z,10.4
2018-12-22T01:54:49.044Z,10.4
2018-12-22T01:55:56.244Z,10.4
2018-12-22T01:57:03.283Z,10.4
2018-12-22T01:58:10.485Z,10.3
2018-12-22T01:59:17.688Z,10.3
2018-12-22T02:00:24.884Z,10.2
2018-12-22T02:01:32.083Z,10.2
2018-12-22T02:02:38.741Z,10.2
2018-12-22T02:03:45.944Z,10.2
2018-12-22T02:04:53.144Z,10.2
2018-12-22T02:06:00.347Z,10.2
2018-12-22T02:07:07.544Z,10.1
2018-12-22T02:08:14.747Z,10.1
2018-12-22T02:09:21.947Z,10.1
2018-12-22T02:10:29.264Z,10
2018-12-22T02:11:36.457Z,10
2018-12-22T02:12:43.382Z,10
2018-12-22T02:13:50.580Z,10
2018-12-22T02:14:57.509Z,10
2018-12-22T02:16:04.709Z,10
2018-12-22T02:17:11.913Z,10
2018-12-22T02:18:19.108Z,10
2018-12-22T02:19:26.304Z,10
2018-12-22T02:20:33.599Z,10
2018-12-22T02:21:40.801Z,9.9
2018-12-22T02:22:48.041Z,9.9
2018-12-22T02:23:55.240Z,10
2018-12-22T02:25:02.484Z,9.9
2018-12-22T02:26:09.688Z,9.9
2018-12-22T02:27:16.888Z,9.9
2018-12-22T02:28:23.890Z,10
2018-12-22T02:29:31.091Z,10
2018-12-22T02:30:38.291Z,10
2018-12-22T02:31:45.225Z,10
2018-12-22T02:32:52.148Z,10
2018-12-22T02:33:59.348Z,9.9
2018-12-22T02:35:06.546Z,9.9
2018-12-22T02:36:13.750Z,9.9
2018-12-22T02:37:20.953Z,9.9
2018-12-22T02:38:27.882Z,9.9
2018-12-22T02:39:35.082Z,9.9
2018-12-22T02:40:42.287Z,9.9
2018-12-22T02:41:49.213Z,9.9
2018-12-22T02:42:56.138Z,9.9
2018-12-22T02:44:03.147Z,9.9
2018-12-22T02:45:10.068Z,9.9
2018-12-22T02:46:16.994Z,9.9
2018-12-22T02:47:24.199Z,9.9
2018-12-22T02:48:31.141Z,9.9
2018-12-22T02:49:38.339Z,9.9
2018-12-22T02:50:45.536Z,9.9
2018-12-22T02:51:52.743Z,9.8
2018-12-22T02:52:59.688Z,9.8
2018-12-22T02:54:06.889Z,9.8
2018-12-22T02:55:14.090Z,9.8
2018-12-22T02:56:21.291Z,9.8
2018-12-22T02:57:28.486Z,9.8
2018-12-22T02:58:35.408Z,9.8
2018-12-22T02:59:42.609Z,9.8
2018-12-22T03:00:49.539Z,9.8
2018-12-22T03:01:56.737Z,9.8
2018-12-22T03:03:03.950Z,9.8
2018-12-22T03:04:10.695Z,9.8
2018-12-22T03:05:17.893Z,9.8
2018-12-22T03:06:24.822Z,9.8
2018-12-22T03:07:32.024Z,9.8
2018-12-22T03:08:39.234Z,9.9
2018-12-22T03:09:46.437Z,9.9
2018-12-22T03:10:53.636Z,10
2018-12-22T03:12:00.935Z,10
2018-12-22T03:13:08.135Z,10
2018-12-22T03:14:15.338Z,9.9
2018-12-22T03:15:22.615Z,9.9
2018-12-22T03:16:29.584Z,9.9
2018-12-22T03:17:36.788Z,9.9
2018-12-22T03:18:43.990Z,9.9
2018-12-22T03:19:50.917Z,10
2018-12-22T03:20:58.116Z,10
2018-12-22T03:22:05.053Z,10
2018-12-22T03:23:12.255Z,10
2018-12-22T03:24:19.179Z,10.1
2018-12-22T03:25:26.127Z,10.2
2018-12-22T03:26:33.324Z,10.2
2018-12-22T03:27:40.271Z,10.1
2018-12-22T03:28:47.197Z,10.2
2018-12-22T03:29:54.130Z,10.2
2018-12-22T03:31:01.335Z,10.2
2018-12-22T03:32:08.262Z,10.1
2018-12-22T03:33:15.784Z,10.2
2018-12-22T03:34:22.977Z,10.2
2018-12-22T03:35:29.898Z,10.1
2018-12-22T03:36:37.101Z,10.1
2018-12-22T03:37:44.075Z,10.1
2018-12-22T03:38:51.270Z,10.2
2018-12-22T03:39:58.196Z,10.2
2018-12-22T03:41:05.395Z,10.2
2018-12-22T03:42:12.600Z,10.2
2018-12-22T03:43:19.858Z,10.2
2018-12-22T03:44:26.985Z,10.2
2018-12-22T03:45:34.189Z,10.2
2018-12-22T03:46:41.398Z,10.2
2018-12-22T03:47:48.595Z,10.2
2018-12-22T03:48:55.516Z,10.1
2018-12-22T03:50:02.445Z,10.1
2018-12-22T03:51:09.647Z,10.1
2018-12-22T03:52:16.847Z,10
2018-12-22T03:53:24.048Z,10.1
2018-12-22T03:54:31.265Z,10.1
2018-12-22T03:55:38.474Z,10.2
2018-12-22T03:56:45.667Z,10.2
2018-12-22T03:57:52.867Z,10.2
2018-12-22T03:59:00.125Z,10.2
2018-12-22T04:00:07.321Z,10.2
2018-12-22T04:01:14.520Z,10.1
2018-12-22T04:02:21.718Z,10.2
2018-12-22T04:03:28.650Z,10.2
2018-12-22T04:04:35.847Z,10.2
2018-12-22T04:05:42.808Z,10.1
2018-12-22T04:06:49.731Z,10.1
2018-12-22T04:07:56.928Z,10.1
2018-12-22T04:09:04.130Z,10
2018-12-22T04:10:11.328Z,10
2018-12-22T04:11:18.525Z,10.1
2018-12-22T04:12:25.724Z,10.1
2018-12-22T04:13:32.922Z,10
2018-12-22T04:14:40.117Z,10
2018-12-22T04:15:47.046Z,10
2018-12-22T04:16:53.968Z,10
2018-12-22T04:18:01.174Z,10
2018-12-22T04:19:08.374Z,10
2018-12-22T04:20:15.578Z,10.1
2018-12-22T04:21:22.790Z,10.1
2018-12-22T04:22:29.718Z,10.2
2018-12-22T04:23:37.113Z,10.3
2018-12-22T04:24:44.313Z,10.3
2018-12-22T04:25:51.510Z,10.2
2018-12-22T04:26:58.711Z,10.2
2018-12-22T04:28:05.369Z,10.2
2018-12-22T04:29:12.565Z,10.2
2018-12-22T04:30:19.784Z,10.2
2018-12-22T04:31:27.591Z,10.1
2018-12-22T04:32:34.789Z,10.1
2018-12-22T04:33:41.715Z,10.1
2018-12-22T04:34:48.909Z,10.1
2018-12-22T04:35:56.109Z,10.1
2018-12-22T04:37:03.037Z,10.2
2018-12-22T04:38:10.241Z,10.2
2018-12-22T04:39:17.440Z,10.1
2018-12-22T04:40:24.364Z,10.1
2018-12-22T04:41:31.562Z,10.2
2018-12-22T04:42:38.491Z,10.2
2018-12-22T04:43:45.695Z,10.2
2018-12-22T04:44:52.891Z,10.2
2018-12-22T04:46:00.095Z,10.1
2018-12-22T04:47:07.287Z,10.1
2018-12-22T04:48:14.491Z,10.1
2018-12-22T04:49:21.143Z,10.1
2018-12-22T04:50:28.345Z,10.2
2018-12-22T04:51:35.541Z,10.2
2018-12-22T04:52:42.751Z,10.2
2018-12-22T04:53:49.944Z,10.2
2018-12-22T04:54:57.150Z,10.2
2018-12-22T04:56:03.881Z,10.2
2018-12-22T04:57:11.073Z,10.2
2018-12-22T04:58:18.276Z,10.2
2018-12-22T04:59:25.564Z,10.2
2018-12-22T05:00:32.491Z,10.2
2018-12-22T05:01:39.692Z,10.2
2018-12-22T05:02:46.978Z,10.3
2018-12-22T05:03:53.908Z,10.2
2018-12-22T05:05:01.109Z,10.3
2018-12-22T05:06:08.310Z,10.3
2018-12-22T05:07:15.238Z,10.3
2018-12-22T05:08:22.161Z,10.2
2018-12-22T05:09:29.361Z,10.2
2018-12-22T05:10:36.573Z,10.2
2018-12-22T05:11:43.496Z,10.2
2018-12-22T05:12:50.700Z,10.2
2018-12-22T05:13:57.901Z,10.2
2018-12-22T05:15:05.097Z,10.2
2018-12-22T05:16:12.021Z,10.1
2018-12-22T05:17:19.225Z,10.2
2018-12-22T05:18:26.422Z,10.1
2018-12-22T05:19:33.350Z,10.1
2018-12-22T05:20:40.554Z,10.1
2018-12-22T05:21:47.758Z,10.1
2018-12-22T05:22:54.969Z,10.2
2018-12-22T05:24:01.893Z,10.2
2018-12-22T05:25:09.095Z,10.3
2018-12-22T05:26:16.291Z,10.2
2018-12-22T05:27:23.491Z,10.2
2018-12-22T05:28:30.423Z,10.2
2018-12-22T05:29:37.628Z,10.1
2018-12-22T05:30:44.565Z,10.1
2018-12-22T05:31:51.767Z,10.1
2018-12-22T05:32:58.965Z,10.1
2018-12-22T05:34:06.378Z,10.1
2018-12-22T05:35:13.581Z,10.1
2018-12-22T05:36:20.783Z,10.1
2018-12-22T05:37:27.981Z,10.1
2018-12-22T05:38:34.644Z,10.1
2018-12-22T05:39:41.579Z,10.1
2018-12-22T05:40:48.782Z,10.1
2018-12-22T05:41:55.985Z,10.1
2018-12-22T05:43:03.189Z,10
2018-12-22T05:44:10.116Z,10
2018-12-22T05:45:17.042Z,10
2018-12-22T05:46:24.249Z,10
2018-12-22T05:47:31.175Z,10
2018-12-22T05:48:38.373Z,10
2018-12-22T05:49:45.575Z,10
2018-12-22T05:50:52.771Z,10
2018-12-22T05:51:59.972Z,10
2018-12-22T05:53:07.175Z,10.1
2018-12-22T05:54:14.384Z,10.1
2018-12-22T05:55:21.584Z,10.1
2018-12-22T05:56:30.338Z,10.1
2018-12-22T05:57:37.538Z,10
2018-12-22T05:58:44.464Z,10.1
2018-12-22T06:00:00.154Z,10.1
2018-12-22T06:01:07.766Z,10.1
2018-12-22T06:02:14.967Z,10.1
2018-12-22T06:03:22.174Z,10
2018-12-22T06:04:29.107Z,10
2018-12-22T06:05:36.307Z,10
2018-12-22T06:06:43.510Z,10
2018-12-22T06:07:50.714Z,10
2018-12-22T06:08:57.915Z,10
2018-12-22T06:10:04.840Z,10.1
2018-12-22T06:11:12.038Z,10.1
2018-12-22T06:12:19.240Z,10.1
2018-12-22T06:13:26.444Z,10.1
2018-12-22T06:14:33.368Z,10.1
2018-12-22T06:15:40.574Z,10.1
2018-12-22T06:16:47.774Z,10.2
2018-12-22T06:17:54.974Z,10.2
2018-12-22T06:19:02.176Z,10.2
2018-12-22T06:20:09.432Z,10.2
2018-12-22T06:21:16.636Z,10.2
2018-12-22T06:22:23.834Z,10.1
2018-12-22T06:23:30.764Z,10.1
2018-12-22T06:24:37.968Z,10.1
2018-12-22T06:25:45.166Z,10.1
2018-12-22T06:26:52.367Z,10
2018-12-22T06:27:59.299Z,10.1
2018-12-22T06:29:06.601Z,10.1
2018-12-22T06:30:13.256Z,10.1
2018-12-22T06:31:20.461Z,10.2
2018-12-22T06:32:27.655Z,10.2
2018-12-22T06:33:34.587Z,10.1
2018-12-22T06:34:41.776Z,10.2
2018-12-22T06:35:48.703Z,10.2
2018-12-22T06:36:55.900Z,10.2
2018-12-22T06:38:02.829Z,10.1
2018-12-22T06:39:10.025Z,10.2
2018-12-22T06:40:17.284Z,10.2
2018-12-22T06:41:24.274Z,10.2
2018-12-22T06:42:31.463Z,10.3
2018-12-22T06:43:38.391Z,10.3
2018-12-22T06:44:45.591Z,10.2
2018-12-22T06:45:52.793Z,10.2
2018-12-22T06:46:59.994Z,10.2
2018-12-22T06:48:07.193Z,10.2
2018-12-22T06:49:14.392Z,10.1
2018-12-22T06:50:21.323Z,10.1
2018-12-22T06:51:28.250Z,10.1
2018-12-22T06:52:35.451Z,10.1
2018-12-22T06:53:42.658Z,10.1
2018-12-22T06:54:49.861Z,10.1
2018-12-22T06:55:57.064Z,10.1
2018-12-22T06:57:04.274Z,10.2
2018-12-22T06:58:11.470Z,10.2
2018-12-22T06:59:18.665Z,10.2
2018-12-22T07:00:25.865Z,10.2
2018-12-22T07:01:33.059Z,10.2
2018-12-22T07:02:40.262Z,10.2
2018-12-22T07:03:47.188Z,10.1
2018-12-22T07:04:54.390Z,10.1
2018-12-22T07:06:01.664Z,10.1
2018-12-22T07:07:08.867Z,10.1
2018-12-22T07:08:15.807Z,10.1
2018-12-22T07:09:23.008Z,10.1
2018-12-22T07:10:30.208Z,10.1
2018-12-22T07:11:37.411Z,10
2018-12-22T07:12:44.611Z,10
2018-12-22T07:13:51.811Z,10
2018-12-22T07:14:59.011Z,10
2018-12-22T07:16:07.927Z,10
2018-12-22T07:17:15.130Z,10
2018-12-22T07:18:22.336Z,10
2018-12-22T07:19:29.269Z,10
2018-12-22T07:20:36.472Z,10
2018-12-22T07:21:43.417Z,10
2018-12-22T07:22:50.339Z,10
2018-12-22T07:23:57.544Z,10
2018-12-22T07:25:04.743Z,10
2018-12-22T07:26:11.940Z,10
2018-12-22T07:27:19.141Z,10
2018-12-22T07:28:26.340Z,10
2018-12-22T07:29:33.273Z,10.1
2018-12-22T07:30:40.478Z,10
2018-12-22T07:31:47.689Z,10
2018-12-22T07:32:57.671Z,10
2018-12-22T07:34:04.605Z,10
2018-12-22T07:35:11.803Z,9.9
2018-12-22T07:36:18.841Z,9.9
2018-12-22T07:37:25.770Z,9.9
2018-12-22T07:38:32.767Z,9.9
2018-12-22T07:39:39.950Z,9.9
2018-12-22T07:40:47.152Z,9.9
2018-12-22T07:41:54.349Z,9.8
2018-12-22T07:43:01.550Z,9.8
2018-12-22T07:44:08.853Z,9.9
2018-12-22T07:45:16.052Z,9.9
2018-12-22T07:46:23.267Z,10
2018-12-22T07:47:30.462Z,9.9
2018-12-22T07:48:37.667Z,9.9
2018-12-22T07:49:44.880Z,9.8
2018-12-22T07:50:52.080Z,9.8
2018-12-22T07:51:59.285Z,9.8
2018-12-22T07:53:06.494Z,9.8
2018-12-22T07:54:13.704Z,9.9
2018-12-22T07:55:20.911Z,9.9
2018-12-22T07:56:28.112Z,9.9
2018-12-22T07:57:35.308Z,9.9
2018-12-22T07:58:42.513Z,9.9
2018-12-22T07:59:49.459Z,9.9
2018-12-22T08:00:56.663Z,9.9
2018-12-22T08:02:03.868Z,9.9
2018-12-22T08:03:11.068Z,9.9
2018-12-22T08:04:20.204Z,9.9
2018-12-22T08:05:27.401Z,9.9
2018-12-22T08:06:34.600Z,9.8
2018-12-22T08:07:41.528Z,9.9
2018-12-22T08:08:48.733Z,9.9
2018-12-22T08:09:55.666Z,9.9
2018-12-22T08:11:02.599Z,9.9
2018-12-22T08:12:09.548Z,9.8
2018-12-22T08:13:16.753Z,9.8
2018-12-22T08:14:23.690Z,9.8
2018-12-22T08:15:30.889Z,9.7
2018-12-22T08:16:38.094Z,9.7
2018-12-22T08:17:45.301Z,9.7
2018-12-22T08:18:52.511Z,9.7
2018-12-22T08:19:59.722Z,9.6
2018-12-22T08:21:06.923Z,9.6
2018-12-22T08:22:14.221Z,9.6
2018-12-22T08:23:21.426Z,9.5
2018-12-22T08:24:28.628Z,9.5
2018-12-22T08:25:35.832Z,9.5
2018-12-22T08:26:43.025Z,9.5
2018-12-22T08:27:50.234Z,9.6
2018-12-22T08:28:57.429Z,9.6
2018-12-22T08:30:04.632Z,9.6
2018-12-22T08:31:11.574Z,9.7
2018-12-22T08:32:18.780Z,9.7
2018-12-22T08:33:25.991Z,9.8
2018-12-22T08:34:33.195Z,9.8
2018-12-22T08:35:40.402Z,9.8
2018-12-22T08:36:47.337Z,9.8
2018-12-22T08:37:54.267Z,9.7
2018-12-22T08:39:01.194Z,9.7
2018-12-22T08:40:08.402Z,9.7
2018-12-22T08:41:15.322Z,9.7
2018-12-22T08:42:22.251Z,9.7
2018-12-22T08:43:29.181Z,9.7
2018-12-22T08:44:36.383Z,9.7
2018-12-22T08:45:43.598Z,9.8
2018-12-22T08:46:50.527Z,9.7
2018-12-22T08:47:57.731Z,9.8
2018-12-22T08:49:04.937Z,9.7
2018-12-22T08:50:12.134Z,9.7
2018-12-22T08:51:19.071Z,9.7
2018-12-22T08:52:26.268Z,9.7
2018-12-22T08:53:33.474Z,9.7
2018-12-22T08:54:40.403Z,9.7
2018-12-22T08:55:47.601Z,9.8
2018-12-22T08:56:54.808Z,9.9
2018-12-22T08:58:02.015Z,9.9
2018-12-22T08:59:08.962Z,9.9
2018-12-22T09:00:16.180Z,9.8
2018-12-22T09:01:23.385Z,9.8
2018-12-22T09:02:30.586Z,9.9
2018-12-22T09:03:37.249Z,9.9
2018-12-22T09:04:44.447Z,9.9
2018-12-22T09:05:51.650Z,9.9
2018-12-22T09:06:58.851Z,9.8
2018-12-22T09:08:06.050Z,9.9
2018-12-22T09:09:13.251Z,9.9
2018-12-22T09:10:20.453Z,9.9
2018-12-22T09:11:27.654Z,9.9
2018-12-22T09:12:34.852Z,9.9
2018-12-22T09:13:42.057Z,9.9
2018-12-22T09:14:48.981Z,9.9
2018-12-22T09:15:56.184Z,9.8
2018-12-22T09:17:03.390Z,9.8
2018-12-22T09:18:10.602Z,9.9
2018-12-22T09:19:17.798Z,9.9
2018-12-22T09:20:25.004Z,9.9
2018-12-22T09:21:31.935Z,9.9
2018-12-22T09:22:38.883Z,9.9
2018-12-22T09:23:45.817Z,9.9
2018-12-22T09:24:53.024Z,10
2018-12-22T09:26:00.234Z,10
2018-12-22T09:27:07.430Z,10.1
2018-12-22T09:28:14.357Z,10.1
2018-12-22T09:29:21.560Z,10.2
2018-12-22T09:30:28.760Z,10.2
2018-12-22T09:31:35.960Z,10.1
2018-12-22T09:32:42.894Z,10.1
2018-12-22T09:33:49.827Z,10.2
2018-12-22T09:34:56.762Z,10.2
2018-12-22T09:36:03.962Z,10.2
2018-12-22T09:37:10.608Z,10.3
2018-12-22T09:38:17.816Z,10.4
2018-12-22T09:39:24.745Z,10.5
2018-12-22T09:40:31.951Z,10.6
2018-12-22T09:41:39.155Z,10.6
2018-12-22T09:42:46.352Z,10.6
2018-12-22T09:43:53.551Z,10.6
2018-12-22T09:45:00.480Z,10.6
2018-12-22T09:46:07.686Z,10.6
2018-12-22T09:47:14.883Z,10.6
2018-12-22T09:48:22.287Z,10.7
2018-12-22T09:49:29.489Z,10.8
2018-12-22T09:50:36.418Z,10.9
2018-12-22T09:51:43.624Z,11
2018-12-22T09:52:50.833Z,11
2018-12-22T09:53:58.040Z,11
2018-12-22T09:55:05.241Z,11
2018-12-22T09:56:12.452Z,10.9
2018-12-22T09:57:19.656Z,10.9
2018-12-22T09:58:26.860Z,10.9
2018-12-22T09:59:34.070Z,11
2018-12-22T10:00:41.004Z,11
2018-12-22T10:01:48.206Z,11
2018-12-22T10:02:55.411Z,11
2018-12-22T10:04:02.614Z,10.9
2018-12-22T10:05:09.821Z,10.8
2018-12-22T10:06:19.124Z,10.8
2018-12-22T10:07:26.072Z,10.7
2018-12-22T10:08:47.932Z,10.7
2018-12-22T10:09:54.595Z,10.6
2018-12-22T10:11:01.816Z,10.5
2018-12-22T10:12:09.012Z,10.5
2018-12-22T10:13:16.222Z,10.4
2018-12-22T10:14:23.432Z,10.4
2018-12-22T10:15:30.366Z,10.3
2018-12-22T10:16:37.578Z,10.3
2018-12-22T10:17:44.507Z,10.2
2018-12-22T10:18:51.709Z,10.2
2018-12-22T10:19:58.643Z,10.1
2018-12-22T10:21:05.852Z,10
2018-12-22T10:22:13.064Z,10
2018-12-22T10:23:22.509Z,9.9
2018-12-22T10:24:29.718Z,9.9
2018-12-22T10:25:36.918Z,9.8
2018-12-22T10:26:44.125Z,9.8
2018-12-22T10:27:51.322Z,9.8
2018-12-22T10:28:58.257Z,9.6
2018-12-22T10:30:05.468Z,9.5
2018-12-22T10:31:18.567Z,9.5
2018-12-22T10:32:25.770Z,9.4
2018-12-22T10:33:32.980Z,9.3
2018-12-22T10:34:40.271Z,9.3
2018-12-22T10:35:47.482Z,9.2
2018-12-22T10:36:54.683Z,9.2
2018-12-22T10:38:01.885Z,9.2
2018-12-22T10:39:09.094Z,9.2
2018-12-22T10:40:16.304Z,9.2
2018-12-22T10:41:23.515Z,9.1
2018-12-22T10:42:30.722Z,9.1
2018-12-22T10:43:37.928Z,9.1
2018-12-22T10:44:45.141Z,9.1
2018-12-22T10:45:52.344Z,9
2018-12-22T10:46:59.402Z,9
2018-12-22T10:48:06.561Z,9
2018-12-22T10:49:13.774Z,9
2018-12-22T10:50:20.981Z,9
2018-12-22T10:51:28.187Z,8.9
2018-12-22T10:52:35.395Z,8.9
2018-12-22T10:53:42.683Z,9
2018-12-22T10:54:49.888Z,9
2018-12-22T10:55:57.096Z,9
2018-12-22T10:57:04.693Z,9
2018-12-22T10:58:11.346Z,9
2018-12-22T10:59:18.556Z,9
2018-12-22T11:00:25.760Z,9
2018-12-22T11:01:32.972Z,9
2018-12-22T11:02:40.192Z,9
2018-12-22T11:03:47.130Z,8.9
2018-12-22T11:04:54.058Z,9
2018-12-22T11:06:01.270Z,9
2018-12-22T11:07:08.202Z,9
2018-12-22T11:08:15.416Z,9
2018-12-22T11:09:22.368Z,9.1
2018-12-22T11:10:29.580Z,9.3
2018-12-22T11:11:36.786Z,9.3
2018-12-22T11:12:43.720Z,9.3
2018-12-22T11:13:50.922Z,9.2
2018-12-22T11:14:57.858Z,9.1
2018-12-22T11:16:04.797Z,9.1
2018-12-22T11:17:12.006Z,9
2018-12-22T11:18:19.222Z,9
2018-12-22T11:19:26.150Z,9
2018-12-22T11:20:33.095Z,9.1
2018-12-22T11:21:39.769Z,9.2
2018-12-22T11:22:46.981Z,9.3
2018-12-22T11:23:53.912Z,9.4
2018-12-22T11:25:01.138Z,9.4
2018-12-22T11:26:08.348Z,9.5
2018-12-22T11:27:15.645Z,9.5
2018-12-22T11:28:22.579Z,9.4
2018-12-22T11:29:29.780Z,9.3
2018-12-22T11:30:36.989Z,9.2
2018-12-22T11:31:43.924Z,9.1
2018-12-22T11:32:51.137Z,9
2018-12-22T11:33:58.348Z,9
2018-12-22T11:35:05.569Z,9
2018-12-22T11:36:12.516Z,8.9
2018-12-22T11:37:19.725Z,8.9
2018-12-22T11:38:26.947Z,8.9
2018-12-22T11:39:34.159Z,8.9
2018-12-22T11:40:41.369Z,8.9
2018-12-22T11:41:48.665Z,8.9
2018-12-22T11:42:55.880Z,8.9
2018-12-22T11:44:02.552Z,8.8
2018-12-22T11:45:09.760Z,8.9
2018-12-22T11:46:16.972Z,8.9
2018-12-22T11:47:24.176Z,8.9
2018-12-22T11:48:31.382Z,8.9
2018-12-22T11:49:38.588Z,8.9
2018-12-22T11:50:45.800Z,8.9
2018-12-22T11:51:53.003Z,8.9
2018-12-22T11:53:00.209Z,8.9
2018-12-22T11:54:07.417Z,8.9
2018-12-22T11:55:14.616Z,8.9
2018-12-22T11:56:21.537Z,8.9
2018-12-22T11:57:28.742Z,8.9
2018-12-22T11:58:35.950Z,8.9
2018-12-22T11:59:45.097Z,8.9
2018-12-22T12:00:52.291Z,8.9
2018-12-22T12:01:59.242Z,9
2018-12-22T12:03:06.447Z,8.9
2018-12-22T12:04:13.650Z,9
2018-12-22T12:05:20.868Z,9
2018-12-22T12:06:28.074Z,9
2018-12-22T12:07:35.284Z,9
2018-12-22T12:08:42.483Z,9
2018-12-22T12:09:49.496Z,9
2018-12-22T12:10:56.703Z,9.1
2018-12-22T12:12:03.911Z,9.1
2018-12-22T12:13:11.111Z,9.1
2018-12-22T12:14:18.315Z,9.1
2018-12-22T12:15:25.236Z,9.2
2018-12-22T12:16:32.437Z,9.2
2018-12-22T12:17:39.636Z,9.2
2018-12-22T12:18:46.856Z,9.2
2018-12-22T12:19:54.075Z,9.2
2018-12-22T12:21:01.286Z,9.3
2018-12-22T12:22:08.481Z,9.4
2018-12-22T12:23:15.686Z,9.6
2018-12-22T12:24:22.620Z,9.6
2018-12-22T12:25:29.822Z,9.7
2018-12-22T12:26:37.021Z,9.7
2018-12-22T12:27:43.960Z,9.9
2018-12-22T12:28:51.164Z,9.9
2018-12-22T12:29:58.368Z,9.8
2018-12-22T12:31:05.587Z,9.7
2018-12-22T12:32:12.519Z,9.6
2018-12-22T12:33:19.715Z,9.6
2018-12-22T12:34:27.005Z,9.6
2018-12-22T12:35:34.212Z,9.6
2018-12-22T12:36:41.145Z,9.6
2018-12-22T12:37:48.346Z,9.5
2018-12-22T12:38:55.548Z,9.5
2018-12-22T12:40:02.471Z,9.5
2018-12-22T12:41:09.397Z,9.5
2018-12-22T12:42:16.329Z,9.6
2018-12-22T12:43:23.540Z,9.7
2018-12-22T12:44:30.778Z,9.7
2018-12-22T12:45:37.712Z,9.8
2018-12-22T12:46:44.917Z,9.9
2018-12-22T12:47:52.128Z,9.9
2018-12-22T12:48:59.336Z,9.8
2018-12-22T12:50:06.539Z,9.7
2018-12-22T12:51:13.745Z,9.7
2018-12-22T12:52:20.954Z,9.6
2018-12-22T12:53:28.158Z,9.6
2018-12-22T12:54:35.110Z,9.5
2018-12-22T12:55:42.313Z,9.5
2018-12-22T12:56:49.528Z,9.4
2018-12-22T12:57:56.737Z,9.4
2018-12-22T12:59:03.936Z,9.3
2018-12-22T13:00:11.142Z,9.2
2018-12-22T13:01:18.349Z,9.2
2018-12-22T13:02:25.554Z,9.1
2018-12-22T13:03:32.756Z,9.1
2018-12-22T13:04:39.961Z,9.1
2018-12-22T13:05:46.891Z,9
2018-12-22T13:06:54.093Z,9
2018-12-22T13:08:01.022Z,9
2018-12-22T13:09:07.954Z,9
2018-12-22T13:10:14.895Z,9
2018-12-22T13:11:22.101Z,8.9
2018-12-22T13:12:29.306Z,8.9
2018-12-22T13:13:36.249Z,8.9
2018-12-22T13:14:43.472Z,8.9
2018-12-22T13:15:50.419Z,8.9
2018-12-22T13:16:57.354Z,8.8
2018-12-22T13:18:04.287Z,8.7
2018-12-22T13:19:11.498Z,8.7
2018-12-22T13:20:18.704Z,8.7
2018-12-22T13:21:25.900Z,8.7
2018-12-22T13:22:33.102Z,8.6
2018-12-22T13:23:40.306Z,8.6
2018-12-22T13:24:47.511Z,8.6
2018-12-22T13:25:54.443Z,8.5
2018-12-22T13:27:01.373Z,8.5
2018-12-22T13:28:08.578Z,8.5
2018-12-22T13:29:15.778Z,8.4
2018-12-22T13:30:22.985Z,8.4
2018-12-22T13:31:30.514Z,8.4
2018-12-22T13:32:37.679Z,8.4
2018-12-22T13:33:44.873Z,8.4
2018-12-22T13:34:52.077Z,8.6
2018-12-22T13:35:59.289Z,8.7
2018-12-22T13:37:06.237Z,8.9
2018-12-22T13:38:13.166Z,9
2018-12-22T13:39:20.090Z,9
2018-12-22T13:40:26.744Z,9.1
2018-12-22T13:41:33.944Z,9.2
2018-12-22T13:42:43.154Z,9.2
2018-12-22T13:43:50.356Z,9.2
2018-12-22T13:44:57.300Z,9.3
2018-12-22T13:46:04.502Z,9.3
2018-12-22T13:47:11.714Z,9.3
2018-12-22T13:48:19.244Z,9.2
2018-12-22T13:49:26.787Z,9.2
2018-12-22T13:50:34.517Z,9.1
2018-12-22T13:51:41.833Z,9.1
2018-12-22T13:52:48.764Z,9.1
2018-12-22T13:53:55.967Z,9
2018-12-22T13:55:03.170Z,9
2018-12-22T13:56:10.380Z,8.8
2018-12-22T13:57:17.578Z,8.8
2018-12-22T13:58:24.782Z,8.7
2018-12-22T13:59:31.995Z,8.7
2018-12-22T14:00:39.199Z,8.7
2018-12-22T14:01:46.414Z,8.8
2018-12-22T14:02:53.617Z,8.9
2018-12-22T14:04:00.554Z,8.9
2018-12-22T14:05:07.758Z,8.9
2018-12-22T14:06:15.054Z,8.9
2018-12-22T14:07:36.640Z,8.9
2018-12-22T14:08:43.581Z,8.9
2018-12-22T14:09:50.779Z,8.9
2018-12-22T14:10:57.747Z,8.9
2018-12-22T14:12:04.958Z,8.9
2018-12-22T14:13:11.888Z,8.9
2018-12-22T14:14:19.116Z,8.9
2018-12-22T14:15:26.314Z,8.9
2018-12-22T14:16:33.524Z,8.8
2018-12-22T14:17:40.460Z,8.7
2018-12-22T14:18:47.666Z,8.7
2018-12-22T14:19:54.872Z,8.7
2018-12-22T14:21:02.071Z,8.6
2018-12-22T14:22:09.277Z,8.6
2018-12-22T14:23:16.479Z,8.5
2018-12-22T14:24:23.441Z,8.5
2018-12-22T14:25:30.646Z,8.5
2018-12-22T14:26:37.848Z,8.4
2018-12-22T14:27:44.777Z,8.4
2018-12-22T14:28:51.678Z,8.4
2018-12-22T14:29:58.880Z,8.4
2018-12-22T14:31:05.818Z,8.4
2018-12-22T14:32:13.028Z,8.3
2018-12-22T14:33:19.956Z,8.3
2018-12-22T14:34:27.167Z,8.4
2018-12-22T14:35:34.369Z,8.3
2018-12-22T14:36:41.678Z,8.3
2018-12-22T14:37:48.884Z,8.3
2018-12-22T14:38:56.098Z,8.2
2018-12-22T14:40:03.306Z,8.2
2018-12-22T14:41:10.516Z,8.2
2018-12-22T14:42:32.450Z,8.1
2018-12-22T14:43:39.673Z,8.1
2018-12-22T14:44:46.615Z,8.1
2018-12-22T14:45:53.830Z,8.1
2018-12-22T14:47:01.033Z,8.1
2018-12-22T14:48:07.968Z,8.1
2018-12-22T14:49:15.176Z,8.1
2018-12-22T14:50:22.383Z,8
2018-12-22T14:51:31.874Z,8
2018-12-22T14:52:38.818Z,8
2018-12-22T14:53:46.037Z,8
2018-12-22T14:54:53.260Z,8
2018-12-22T14:56:00.480Z,7.9
2018-12-22T14:57:07.694Z,7.9
2018-12-22T14:58:14.632Z,7.9
2018-12-22T14:59:21.844Z,7.9
2018-12-22T15:00:29.149Z,7.9
2018-12-22T15:01:36.091Z,7.8
2018-12-22T15:02:43.315Z,7.8
2018-12-22T15:03:50.528Z,7.8
2018-12-22T15:04:57.735Z,7.8
2018-12-22T15:06:04.938Z,7.7
2018-12-22T15:07:12.146Z,7.7
2018-12-22T15:08:19.364Z,7.7
2018-12-22T15:09:26.316Z,7.7
2018-12-22T15:10:33.536Z,7.6
2018-12-22T15:11:40.749Z,7.6
2018-12-22T15:12:47.969Z,7.5
2018-12-22T15:13:54.910Z,7.5
2018-12-22T15:15:02.125Z,7.5
2018-12-22T15:16:09.330Z,7.5
2018-12-22T15:17:16.536Z,7.5
2018-12-22T15:18:23.477Z,7.5
2018-12-22T15:19:30.415Z,7.4
2018-12-22T15:20:37.625Z,7.4
2018-12-22T15:21:44.842Z,7.3